createdAt,value
2019-03-23T00:01:10.661Z,-0.60
2019-03-23T00:03:41.831Z,-0.60
2019-03-23T00:06:13.142Z,-0.70
2019-03-23T00:08:46.037Z,-0.80
2019-03-23T00:11:17.255Z,-0.90
2019-03-23T00:13:48.522Z,-1.00
2019-03-23T00:16:19.673Z,-1.10
2019-03-23T00:18:50.818Z,-1.20
2019-03-23T00:21:21.968Z,-1.20
2019-03-23T00:23:52.942Z,-1.20
2019-03-23T00:26:24.078Z,-1.20
2019-03-23T00:28:55.158Z,-1.30
2019-03-23T00:31:26.147Z,-1.30
2019-03-23T00:33:57.153Z,-1.30
2019-03-23T00:36:28.298Z,-1.30
2019-03-23T00:38:59.451Z,-1.30
2019-03-23T00:41:30.480Z,-1.30
2019-03-23T00:44:02.762Z,-1.30
2019-03-23T00:46:33.909Z,-1.20
2019-03-23T00:49:05.012Z,-1.20
2019-03-23T00:51:36.509Z,-1.30
2019-03-23T00:54:07.733Z,-1.20
2019-03-23T00:56:38.746Z,-1.20
2019-03-23T00:59:09.766Z,-1.30
2019-03-23T01:01:40.875Z,-1.30
2019-03-23T01:04:11.901Z,-1.40
2019-03-23T01:06:51.811Z,-1.40
2019-03-23T01:09:15.737Z,-1.40
2019-03-23T01:11:46.768Z,-1.30
2019-03-23T01:14:18.017Z,-1.30
2019-03-23T01:16:49.018Z,-1.30
2019-03-23T01:19:20.027Z,-1.30
2019-03-23T01:21:51.190Z,-1.40
2019-03-23T01:24:22.276Z,-1.40
2019-03-23T01:26:53.630Z,-1.40
2019-03-23T01:29:24.685Z,-1.50
2019-03-23T01:31:55.764Z,-1.50
2019-03-23T01:34:26.950Z,-1.50
2019-03-23T01:37:02.812Z,-1.50
2019-03-23T01:39:30.782Z,-1.50
2019-03-23T01:42:03.095Z,-1.60
2019-03-23T01:44:34.142Z,-1.70
2019-03-23T01:47:06.306Z,-1.90
2019-03-23T01:49:37.412Z,-1.90
2019-03-23T01:52:08.435Z,-2.10
2019-03-23T01:54:39.484Z,-2.10
2019-03-23T01:57:10.626Z,-2.20
2019-03-23T01:59:41.773Z,-2.20
2019-03-23T02:02:13.128Z,-2.20
2019-03-23T02:04:44.160Z,-2.20
2019-03-23T02:07:15.286Z,-2.20
2019-03-23T02:09:46.236Z,-2.20
2019-03-23T02:12:17.486Z,-2.20
2019-03-23T02:14:48.625Z,-2.30
2019-03-23T02:17:19.770Z,-2.30
2019-03-23T02:19:50.911Z,-2.30
2019-03-23T02:22:22.054Z,-2.20
2019-03-23T02:24:53.171Z,-2.10
2019-03-23T02:27:24.247Z,-2.00
2019-03-23T02:29:55.285Z,-2.10
2019-03-23T02:32:26.436Z,-2.10
2019-03-23T02:34:59.458Z,-2.00
2019-03-23T02:37:30.530Z,-2.00
2019-03-23T02:40:01.693Z,-2.00
2019-03-23T02:42:32.755Z,-2.00
2019-03-23T02:45:03.954Z,-2.10
2019-03-23T02:47:34.997Z,-2.10
2019-03-23T02:50:06.575Z,-2.10
2019-03-23T02:52:37.890Z,-2.00
2019-03-23T02:55:09.110Z,-2.10
2019-03-23T02:57:40.219Z,-2.00
2019-03-23T03:00:12.938Z,-2.00
2019-03-23T03:02:44.044Z,-2.10
2019-03-23T03:05:15.274Z,-2.10
2019-03-23T03:07:46.339Z,-1.90
2019-03-23T03:10:39.775Z,-1.80
2019-03-23T03:13:11.136Z,-1.70
2019-03-23T03:15:42.213Z,-1.80
2019-03-23T03:18:16.093Z,-1.90
2019-03-23T03:20:47.242Z,-1.90
2019-03-23T03:23:18.280Z,-2.00
2019-03-23T03:25:49.400Z,-2.10
2019-03-23T03:28:20.492Z,-2.10
2019-03-23T03:30:51.723Z,-2.10
2019-03-23T03:33:22.765Z,-2.00
2019-03-23T03:35:53.941Z,-1.80
2019-03-23T03:38:25.757Z,-1.70
2019-03-23T03:40:57.036Z,-1.70
2019-03-23T03:43:31.231Z,-1.80
2019-03-23T03:46:02.439Z,-1.80
2019-03-23T03:48:33.433Z,-1.80
2019-03-23T03:51:04.488Z,-1.80
2019-03-23T03:53:36.571Z,-1.80
2019-03-23T03:56:07.591Z,-1.90
2019-03-23T03:58:38.732Z,-2.00
2019-03-23T04:01:09.714Z,-2.00
2019-03-23T04:03:40.880Z,-2.00
2019-03-23T04:06:12.006Z,-2.00
2019-03-23T04:08:42.953Z,-2.10
2019-03-23T04:11:14.121Z,-2.10
2019-03-23T04:13:45.228Z,-2.10
2019-03-23T04:16:17.054Z,-2.20
2019-03-23T04:18:48.065Z,-2.30
2019-03-23T04:21:19.175Z,-2.30
2019-03-23T04:23:50.293Z,-2.20
2019-03-23T04:26:21.561Z,-2.20
2019-03-23T04:28:52.588Z,-2.10
2019-03-23T04:31:23.676Z,-2.00
2019-03-23T04:33:54.898Z,-1.90
2019-03-23T04:36:25.901Z,-1.80
2019-03-23T04:38:57.074Z,-1.80
2019-03-23T04:41:28.115Z,-1.90
2019-03-23T04:43:59.247Z,-1.90
2019-03-23T04:46:30.515Z,-1.90
2019-03-23T04:49:01.557Z,-1.70
2019-03-23T04:51:32.590Z,-1.70
2019-03-23T04:54:03.749Z,-1.50
2019-03-23T04:56:34.972Z,-1.30
2019-03-23T04:59:06.027Z,-1.30
2019-03-23T05:01:37.165Z,-1.20
2019-03-23T05:04:08.116Z,-1.20
2019-03-23T05:06:39.143Z,-1.20
2019-03-23T05:09:10.385Z,-1.20
2019-03-23T05:11:41.401Z,-1.20
2019-03-23T05:14:12.473Z,-1.20
2019-03-23T05:16:43.597Z,-1.10
2019-03-23T05:19:14.623Z,-1.10
2019-03-23T05:21:45.696Z,-1.00
2019-03-23T05:24:16.658Z,-1.00
2019-03-23T05:26:47.643Z,-0.90
2019-03-23T05:29:18.723Z,-0.80
2019-03-23T05:31:49.906Z,-0.70
2019-03-23T05:34:20.960Z,-0.70
2019-03-23T05:36:52.147Z,-0.60
2019-03-23T05:39:23.245Z,-0.60
2019-03-23T05:41:54.369Z,-0.50
2019-03-23T05:44:25.501Z,-0.40
2019-03-23T05:46:56.618Z,-0.30
2019-03-23T05:49:27.966Z,-0.30
2019-03-23T05:52:01.501Z,-0.10
2019-03-23T05:54:31.886Z,0.00
2019-03-23T05:57:04.012Z,0.10
2019-03-23T05:59:35.402Z,0.30
2019-03-23T06:02:06.510Z,0.40
2019-03-23T06:04:37.567Z,0.60
2019-03-23T06:07:08.483Z,0.70
2019-03-23T06:09:39.842Z,0.90
2019-03-23T06:12:10.863Z,1.00
2019-03-23T06:14:42.066Z,1.20
2019-03-23T06:17:13.229Z,1.30
2019-03-23T06:19:44.232Z,1.40
2019-03-23T06:22:15.303Z,1.50
2019-03-23T06:24:46.525Z,1.70
2019-03-23T06:27:17.586Z,1.80
2019-03-23T06:29:48.717Z,2.00
2019-03-23T06:32:21.950Z,2.20
2019-03-23T06:34:53.045Z,2.40
2019-03-23T06:37:24.401Z,2.50
2019-03-23T06:39:55.462Z,2.70
2019-03-23T06:42:26.537Z,2.90
2019-03-23T06:44:57.843Z,3.10
2019-03-23T06:47:29.106Z,3.30
2019-03-23T06:50:00.334Z,3.50
2019-03-23T06:52:31.423Z,3.80
2019-03-23T06:55:02.567Z,4.10
2019-03-23T06:57:33.600Z,4.30
2019-03-23T07:00:05.747Z,4.50
2019-03-23T07:02:36.952Z,4.70
2019-03-23T07:05:08.720Z,4.80
2019-03-23T07:07:39.973Z,5.00
2019-03-23T07:10:11.410Z,5.20
2019-03-23T07:12:43.767Z,5.40
2019-03-23T07:15:19.811Z,5.60
2019-03-23T07:17:47.835Z,5.70
2019-03-23T07:20:19.077Z,5.90
2019-03-23T07:22:50.209Z,6.10
2019-03-23T07:25:23.093Z,6.20
2019-03-23T07:27:54.400Z,6.40
2019-03-23T07:30:25.545Z,6.50
2019-03-23T07:32:56.825Z,6.70
2019-03-23T07:35:34.577Z,6.80
2019-03-23T07:38:05.583Z,7.00
2019-03-23T07:40:39.707Z,7.20
2019-03-23T07:43:10.709Z,7.30
2019-03-23T07:45:41.749Z,7.40
2019-03-23T07:48:12.725Z,7.60
2019-03-23T07:50:47.221Z,7.60
2019-03-23T07:53:20.430Z,7.80
2019-03-23T07:56:02.527Z,7.90
2019-03-23T07:58:33.675Z,8.00
2019-03-23T08:01:05.253Z,8.20
2019-03-23T08:03:36.259Z,8.30
2019-03-23T08:06:17.490Z,8.40
2019-03-23T08:08:48.780Z,8.50
2019-03-23T08:11:19.799Z,8.60
2019-03-23T08:13:50.954Z,8.70
2019-03-23T08:16:22.200Z,8.70
2019-03-23T08:18:55.016Z,8.80
2019-03-23T08:21:27.315Z,8.90
2019-03-23T08:23:58.496Z,9.00
2019-03-23T08:26:29.636Z,9.20
2019-03-23T08:29:03.173Z,9.20
2019-03-23T08:31:33.875Z,9.30
2019-03-23T08:34:06.139Z,9.30
2019-03-23T08:36:37.315Z,9.40
2019-03-23T08:39:08.790Z,9.50
2019-03-23T08:41:40.147Z,9.60
2019-03-23T08:44:11.432Z,9.70
2019-03-23T08:46:42.598Z,9.80
2019-03-23T08:49:15.767Z,9.90
2019-03-23T08:51:46.606Z,9.90
2019-03-23T08:54:17.842Z,10.00
2019-03-23T08:56:48.881Z,10.10
2019-03-23T08:59:20.000Z,10.10
2019-03-23T09:01:51.176Z,10.20
2019-03-23T09:04:22.548Z,10.40
2019-03-23T09:06:53.888Z,10.40
2019-03-23T09:09:26.049Z,10.40
2019-03-23T09:11:57.263Z,10.50
2019-03-23T09:14:31.313Z,10.60
2019-03-23T09:17:02.794Z,10.70
2019-03-23T09:19:34.715Z,10.80
2019-03-23T09:22:06.055Z,10.90
2019-03-23T09:24:37.167Z,11.00
2019-03-23T09:27:08.110Z,10.90
2019-03-23T09:29:39.340Z,11.00
2019-03-23T09:32:10.543Z,11.10
2019-03-23T09:34:41.786Z,11.20
2019-03-23T09:37:12.916Z,11.30
2019-03-23T09:39:43.942Z,11.30
2019-03-23T09:42:16.298Z,11.30
2019-03-23T09:44:47.290Z,11.40
2019-03-23T09:47:18.447Z,11.50
2019-03-23T09:49:49.556Z,12.40
2019-03-23T09:52:20.538Z,11.60
2019-03-23T09:54:51.812Z,11.80
2019-03-23T09:57:22.819Z,12.00
2019-03-23T09:59:54.268Z,12.10
2019-03-23T10:02:25.442Z,12.20
2019-03-23T10:04:56.447Z,12.20
2019-03-23T10:07:27.710Z,12.30
2019-03-23T10:09:59.016Z,12.30
2019-03-23T10:12:30.126Z,12.40
2019-03-23T10:15:01.407Z,12.50
2019-03-23T10:17:33.667Z,12.70
2019-03-23T10:20:05.345Z,12.80
2019-03-23T10:22:36.620Z,12.90
2019-03-23T10:25:08.261Z,13.00
2019-03-23T10:27:39.480Z,13.10
2019-03-23T10:30:14.571Z,13.20
2019-03-23T10:32:45.580Z,13.30
2019-03-23T10:35:16.654Z,13.40
2019-03-23T10:37:50.599Z,13.50
2019-03-23T10:40:31.691Z,13.60
2019-03-23T10:42:54.337Z,13.80
2019-03-23T10:45:25.555Z,13.70
2019-03-23T10:47:58.708Z,13.80
2019-03-23T10:50:29.738Z,14.00
2019-03-23T10:53:03.977Z,14.10
2019-03-23T10:55:35.779Z,14.10
2019-03-23T10:58:06.984Z,14.00
2019-03-23T11:00:38.314Z,14.00
2019-03-23T11:03:09.444Z,14.20
2019-03-23T11:05:41.067Z,14.30
2019-03-23T11:08:12.517Z,14.40
2019-03-23T11:10:43.700Z,14.30
2019-03-23T11:13:14.907Z,14.40
2019-03-23T11:15:45.868Z,14.40
2019-03-23T11:18:17.087Z,14.60
2019-03-23T11:20:48.467Z,14.80
2019-03-23T11:23:19.548Z,14.90
2019-03-23T11:25:50.767Z,15.00
2019-03-23T11:28:21.862Z,15.10
2019-03-23T11:30:53.148Z,15.10
2019-03-23T11:33:24.371Z,15.30
2019-03-23T11:35:58.053Z,15.30
2019-03-23T11:38:28.527Z,15.40
2019-03-23T11:40:59.842Z,15.60
2019-03-23T11:43:30.978Z,15.50
2019-03-23T11:46:02.248Z,15.40
2019-03-23T11:48:33.777Z,15.30
2019-03-23T11:51:06.337Z,15.20
2019-03-23T11:53:38.037Z,15.20
2019-03-23T11:56:09.301Z,15.20
2019-03-23T11:58:40.594Z,15.40
2019-03-23T12:01:11.925Z,15.70
2019-03-23T12:03:44.000Z,15.70
2019-03-23T12:06:15.315Z,16.00
2019-03-23T12:08:47.142Z,16.30
2019-03-23T12:11:18.387Z,16.40
2019-03-23T12:13:49.523Z,16.60
2019-03-23T12:16:21.184Z,16.70
2019-03-23T12:18:52.475Z,16.80
2019-03-23T12:21:23.651Z,16.90
2019-03-23T12:23:55.321Z,16.80
2019-03-23T12:26:26.757Z,16.90
2019-03-23T12:28:58.297Z,17.10
2019-03-23T12:31:31.236Z,17.40
2019-03-23T12:34:03.376Z,17.40
2019-03-23T12:36:35.941Z,17.60
2019-03-23T12:39:26.146Z,18.00
2019-03-23T12:41:57.517Z,18.60
2019-03-23T12:44:28.996Z,18.40
2019-03-23T12:47:00.393Z,18.40
2019-03-23T12:49:31.877Z,18.60
2019-03-23T12:52:03.315Z,18.80
2019-03-23T12:54:38.845Z,18.80
2019-03-23T12:57:25.534Z,18.50
2019-03-23T12:59:56.998Z,18.50
2019-03-23T13:02:37.615Z,18.40
2019-03-23T13:05:09.164Z,18.40
2019-03-23T13:07:40.548Z,18.20
2019-03-23T13:10:12.476Z,18.30
2019-03-23T13:12:50.764Z,18.50
2019-03-23T13:15:23.195Z,18.60
2019-03-23T13:17:54.631Z,18.60
2019-03-23T13:20:27.212Z,18.20
2019-03-23T13:23:04.026Z,17.90
2019-03-23T13:25:44.345Z,17.60
2019-03-23T13:28:15.799Z,17.60
2019-03-23T13:30:47.051Z,17.40
2019-03-23T13:33:26.537Z,17.40
2019-03-23T13:35:58.508Z,17.20
2019-03-23T13:38:29.861Z,17.10
2019-03-23T13:41:01.065Z,17.10
2019-03-23T13:43:32.626Z,17.10
2019-03-23T13:46:05.264Z,17.10
2019-03-23T13:48:36.684Z,17.10
2019-03-23T13:51:08.160Z,17.10
2019-03-23T13:53:39.657Z,17.00
2019-03-23T13:56:11.276Z,17.10
2019-03-23T13:58:42.725Z,17.50
2019-03-23T14:01:19.146Z,17.60
2019-03-23T14:03:50.409Z,17.50
2019-03-23T14:06:21.884Z,17.30
2019-03-23T14:08:53.271Z,17.00
2019-03-23T14:11:25.671Z,16.70
2019-03-23T14:13:56.881Z,16.60
2019-03-23T14:16:28.472Z,16.50
2019-03-23T14:19:04.405Z,16.50
2019-03-23T14:21:35.911Z,16.40
2019-03-23T14:24:07.965Z,16.60
2019-03-23T14:26:39.264Z,17.00
2019-03-23T14:29:10.416Z,17.40
2019-03-23T14:31:41.598Z,17.60
2019-03-23T14:34:16.059Z,17.90
2019-03-23T14:36:47.351Z,18.00
2019-03-23T14:39:18.792Z,17.90
2019-03-23T14:41:50.263Z,17.80
2019-03-23T14:44:21.369Z,18.00
2019-03-23T14:46:52.694Z,17.90
2019-03-23T14:49:23.914Z,17.40
2019-03-23T14:51:55.194Z,17.20
2019-03-23T14:54:26.275Z,17.20
2019-03-23T14:56:57.420Z,17.30
2019-03-23T14:59:28.620Z,17.50
2019-03-23T15:01:59.918Z,17.60
2019-03-23T15:04:31.190Z,17.60
2019-03-23T15:07:02.761Z,17.50
2019-03-23T15:09:34.176Z,17.20
2019-03-23T15:12:14.742Z,16.80
2019-03-23T15:14:38.694Z,16.50
2019-03-23T15:17:10.316Z,16.30
2019-03-23T15:19:41.804Z,16.00
2019-03-23T15:22:13.152Z,15.90
2019-03-23T15:24:44.567Z,15.80
2019-03-23T15:27:16.986Z,15.80
2019-03-23T15:29:48.222Z,15.80
2019-03-23T15:32:19.834Z,15.80
2019-03-23T15:34:51.405Z,15.90
2019-03-23T15:37:23.008Z,16.10
2019-03-23T15:39:55.737Z,16.30
2019-03-23T15:42:31.477Z,16.50
2019-03-23T15:45:02.852Z,16.90
2019-03-23T15:47:34.147Z,17.30
2019-03-23T15:50:05.849Z,17.80
2019-03-23T15:52:37.524Z,18.20
2019-03-23T15:55:09.942Z,18.60
2019-03-23T15:57:41.507Z,18.80
2019-03-23T16:00:13.803Z,18.40
2019-03-23T16:02:45.258Z,18.00
2019-03-23T16:05:16.557Z,17.60
2019-03-23T16:07:47.838Z,17.10
2019-03-23T16:10:20.828Z,16.60
2019-03-23T16:12:52.154Z,16.20
2019-03-23T16:15:23.712Z,15.70
2019-03-23T16:17:58.257Z,15.20
2019-03-23T16:20:29.585Z,14.80
2019-03-23T16:23:00.796Z,14.50
2019-03-23T16:25:32.324Z,14.30
2019-03-23T16:28:03.710Z,14.00
2019-03-23T16:30:35.078Z,13.80
2019-03-23T16:33:06.696Z,13.60
2019-03-23T16:35:38.006Z,13.40
2019-03-23T16:38:09.498Z,13.20
2019-03-23T16:40:40.897Z,13.10
2019-03-23T16:43:12.499Z,12.90
2019-03-23T16:45:45.608Z,12.80
2019-03-23T16:48:17.008Z,12.60
2019-03-23T16:50:48.734Z,12.40
2019-03-23T16:53:21.913Z,12.30
2019-03-23T16:55:53.760Z,12.10
2019-03-23T16:58:27.034Z,12.00
2019-03-23T17:00:58.564Z,11.90
2019-03-23T17:03:29.794Z,11.80
2019-03-23T17:06:02.672Z,11.80
2019-03-23T17:08:34.168Z,11.70
2019-03-23T17:11:08.299Z,11.60
2019-03-23T17:13:39.826Z,11.50
2019-03-23T17:16:11.175Z,11.40
2019-03-23T17:18:42.833Z,11.30
2019-03-23T17:21:14.743Z,11.20
2019-03-23T17:23:46.394Z,11.10
2019-03-23T17:26:18.476Z,11.00
2019-03-23T17:28:49.913Z,11.00
2019-03-23T17:31:22.228Z,11.00
2019-03-23T17:33:53.462Z,11.00
2019-03-23T17:36:25.593Z,11.00
2019-03-23T17:38:56.877Z,10.90
2019-03-23T17:41:28.144Z,10.80
2019-03-23T17:43:59.353Z,10.70
2019-03-23T17:46:30.544Z,10.70
2019-03-23T17:49:05.152Z,10.70
2019-03-23T17:51:37.877Z,10.70
2019-03-23T17:54:11.557Z,10.70
2019-03-23T17:56:42.786Z,10.70
2019-03-23T17:59:14.410Z,10.70
2019-03-23T18:01:45.759Z,10.70
2019-03-23T18:04:16.972Z,10.80
2019-03-23T18:06:50.066Z,10.90
2019-03-23T18:09:21.539Z,11.00
2019-03-23T18:11:52.962Z,11.10
2019-03-23T18:14:25.511Z,11.20
2019-03-23T18:16:57.726Z,11.40
2019-03-23T18:19:29.517Z,11.40
2019-03-23T18:22:02.420Z,11.40
2019-03-23T18:24:33.549Z,11.60
2019-03-23T18:27:05.079Z,11.60
2019-03-23T18:29:36.509Z,11.70
2019-03-23T18:32:10.622Z,11.60
2019-03-23T18:34:44.632Z,11.50
2019-03-23T18:37:16.058Z,11.50
2019-03-23T18:39:47.334Z,11.30
2019-03-23T18:42:18.779Z,11.20
2019-03-23T18:44:51.012Z,11.20
2019-03-23T18:47:22.588Z,11.10
2019-03-23T18:49:54.147Z,11.00
2019-03-23T18:52:25.601Z,10.90
2019-03-23T18:54:57.342Z,10.90
2019-03-23T18:57:29.792Z,10.80
2019-03-23T19:00:02.121Z,10.70
2019-03-23T19:02:34.922Z,10.60
2019-03-23T19:05:06.319Z,10.50
2019-03-23T19:07:37.671Z,10.40
2019-03-23T19:10:09.241Z,10.20
2019-03-23T19:12:43.138Z,10.10
2019-03-23T19:15:14.708Z,10.10
2019-03-23T19:17:46.042Z,10.00
2019-03-23T19:20:19.658Z,10.00
2019-03-23T19:22:54.017Z,10.00
2019-03-23T19:25:25.631Z,9.90
2019-03-23T19:27:57.064Z,9.80
2019-03-23T19:30:28.346Z,9.80
2019-03-23T19:32:59.686Z,9.80
2019-03-23T19:35:30.996Z,9.70
2019-03-23T19:38:04.841Z,9.70
2019-03-23T19:40:38.519Z,9.60
2019-03-23T19:43:10.033Z,9.60
2019-03-23T19:45:41.428Z,9.50
2019-03-23T19:48:12.814Z,9.50
2019-03-23T19:50:45.318Z,9.50
2019-03-23T19:53:19.876Z,9.40
2019-03-23T19:55:51.455Z,9.40
2019-03-23T19:58:26.567Z,9.40
2019-03-23T20:01:01.807Z,9.40
2019-03-23T20:03:35.107Z,9.40
2019-03-23T20:06:10.541Z,9.30
2019-03-23T20:08:42.805Z,9.30
2019-03-23T20:11:15.535Z,9.40
2019-03-23T20:13:46.966Z,9.40
2019-03-23T20:16:18.379Z,9.30
2019-03-23T20:18:50.789Z,9.30
2019-03-23T20:21:23.451Z,9.30
2019-03-23T20:23:54.727Z,9.40
2019-03-23T20:26:29.335Z,9.50
2019-03-23T20:29:01.228Z,9.60
2019-03-23T20:31:33.131Z,9.60
2019-03-23T20:34:04.581Z,9.70
2019-03-23T20:36:35.923Z,9.60
2019-03-23T20:39:08.367Z,9.60
2019-03-23T20:41:41.294Z,9.50
2019-03-23T20:44:12.453Z,9.60
2019-03-23T20:46:44.182Z,9.70
2019-03-23T20:49:15.514Z,9.80
2019-03-23T20:51:47.017Z,9.80
2019-03-23T20:54:18.619Z,9.90
2019-03-23T20:56:49.763Z,10.00
2019-03-23T20:59:24.092Z,9.90
2019-03-23T21:01:56.066Z,9.70
2019-03-23T21:04:27.607Z,9.60
2019-03-23T21:06:58.723Z,9.60
2019-03-23T21:09:30.018Z,9.50
2019-03-23T21:12:01.142Z,9.50
2019-03-23T21:14:32.227Z,9.40
2019-03-23T21:17:03.561Z,9.40
2019-03-23T21:19:34.556Z,9.30
2019-03-23T21:22:05.710Z,9.30
2019-03-23T21:24:36.967Z,9.30
2019-03-23T21:27:08.104Z,9.20
2019-03-23T21:29:41.165Z,9.20
2019-03-23T21:32:11.984Z,9.20
2019-03-23T21:34:43.385Z,9.10
2019-03-23T21:37:14.684Z,9.20
2019-03-23T21:39:45.729Z,9.30
2019-03-23T21:42:17.793Z,9.30
2019-03-23T21:44:48.938Z,9.30
2019-03-23T21:47:19.906Z,9.30
2019-03-23T21:49:50.985Z,9.30
2019-03-23T21:52:21.928Z,9.40
2019-03-23T21:54:53.260Z,9.40
2019-03-23T21:57:24.569Z,9.60
2019-03-23T21:59:55.644Z,9.70
2019-03-23T22:02:27.091Z,9.80
2019-03-23T22:04:58.345Z,9.80
2019-03-23T22:07:29.485Z,9.80
2019-03-23T22:10:00.671Z,9.80
2019-03-23T22:12:31.757Z,9.80
2019-03-23T22:15:02.912Z,9.70
2019-03-23T22:17:34.148Z,9.70
2019-03-23T22:20:06.389Z,9.60
2019-03-23T22:22:38.649Z,9.50
2019-03-23T22:25:10.572Z,9.50
2019-03-23T22:27:41.570Z,9.40
2019-03-23T22:30:13.718Z,9.30
2019-03-23T22:32:46.563Z,9.20
2019-03-23T22:35:17.981Z,9.10
2019-03-23T22:37:49.143Z,9.00
2019-03-23T22:40:23.349Z,9.00
2019-03-23T22:42:54.606Z,8.90
2019-03-23T22:45:25.912Z,8.80
2019-03-23T22:47:57.086Z,8.80
2019-03-23T22:50:28.446Z,8.80
2019-03-23T22:52:59.601Z,8.70
2019-03-23T22:55:30.718Z,8.70
2019-03-23T22:58:01.867Z,8.70
2019-03-23T23:00:42.251Z,8.60
2019-03-23T23:03:14.502Z,8.50
2019-03-23T23:05:45.856Z,8.50
2019-03-23T23:08:17.097Z,8.40
2019-03-23T23:10:48.185Z,8.30
2019-03-23T23:13:19.269Z,8.20
2019-03-23T23:15:50.516Z,8.10
2019-03-23T23:18:21.558Z,8.10
2019-03-23T23:20:52.679Z,8.10
2019-03-23T23:23:24.061Z,8.10
2019-03-23T23:25:55.145Z,7.90
2019-03-23T23:28:26.184Z,7.80
2019-03-23T23:30:58.446Z,7.70
2019-03-23T23:33:29.498Z,7.60
2019-03-23T23:36:01.414Z,7.50
2019-03-23T23:38:32.826Z,7.50
2019-03-23T23:41:05.136Z,7.40
2019-03-23T23:43:36.266Z,7.40
2019-03-23T23:46:07.425Z,7.40
2019-03-23T23:48:38.557Z,7.40
2019-03-23T23:51:12.359Z,7.30
2019-03-23T23:53:43.513Z,7.30
2019-03-23T23:56:14.679Z,7.20
2019-03-23T23:58:45.882Z,7.10
